sensor_id;sensor_type;location;lat;lon;timestamp;pressure;altitude;pressure_sealevel;temperature;humidity
26112;BME280;13829;48.990;8.346;2022-12-07T00:01:32;100663.59;;;5.86;100.00
26112;BME280;13829;48.990;8.346;2022-12-07T00:04:03;100667.00;;;5.83;100.00
26112;BME280;13829;48.990;8.346;2022-12-07T00:06:31;100663.47;;;6.12;100.00
26112;BME280;13829;48.990;8.346;2022-12-07T00:08:58;100660.38;;;5.95;100.00
26112;BME280;13829;48.990;8.346;2022-12-07T00:11:26;100655.88;;;5.89;100.00
26112;BME280;13829;48.990;8.346;2022-12-07T00:13:55;100652.47;;;5.92;100.00
26112;BME280;13829;48.990;8.346;2022-12-07T00:16:27;100645.72;;;5.98;100.00
26112;BME280;13829;48.990;8.346;2022-12-07T00:18:56;100655.16;;;5.95;100.00
26112;BME280;13829;48.990;8.346;2022-12-07T00:21:26;100647.97;;;5.87;100.00
26112;BME280;13829;48.990;8.346;2022-12-07T00:23:55;100654.28;;;5.94;100.00
26112;BME280;13829;48.990;8.346;2022-12-07T00:26:25;100654.00;;;5.85;100.00
26112;BME280;13829;48.990;8.346;2022-12-07T00:28:55;100649.63;;;5.84;100.00
26112;BME280;13829;48.990;8.346;2022-12-07T00:31:25;100665.19;;;5.81;100.00
26112;BME280;13829;48.990;8.346;2022-12-07T00:33:52;100658.41;;;5.87;100.00
26112;BME280;13829;48.990;8.346;2022-12-07T00:36:23;100652.94;;;5.78;100.00
26112;BME280;13829;48.990;8.346;2022-12-07T00:38:51;100657.19;;;5.75;100.00
26112;BME280;13829;48.990;8.346;2022-12-07T00:41:20;100654.81;;;5.84;100.00
26112;BME280;13829;48.990;8.346;2022-12-07T00:43:49;100655.69;;;5.83;100.00
26112;BME280;13829;48.990;8.346;2022-12-07T00:46:18;100661.75;;;5.82;100.00
26112;BME280;13829;48.990;8.346;2022-12-07T00:48:46;100658.38;;;5.86;100.00
26112;BME280;13829;48.990;8.346;2022-12-07T00:51:16;100655.56;;;5.78;100.00
26112;BME280;13829;48.990;8.346;2022-12-07T00:53:45;100657.19;;;5.75;100.00
26112;BME280;13829;48.990;8.346;2022-12-07T00:56:15;100659.03;;;5.79;100.00
26112;BME280;13829;48.990;8.346;2022-12-07T00:58:42;100654.78;;;5.82;100.00
26112;BME280;13829;48.990;8.346;2022-12-07T01:01:10;100650.16;;;5.72;100.00
26112;BME280;13829;48.990;8.346;2022-12-07T01:03:38;100658.03;;;5.74;100.00
26112;BME280;13829;48.990;8.346;2022-12-07T01:06:05;100643.97;;;5.68;100.00
26112;BME280;13829;48.990;8.346;2022-12-07T01:08:33;100650.00;;;5.67;100.00
26112;BME280;13829;48.990;8.346;2022-12-07T01:11:04;100647.75;;;5.80;100.00
26112;BME280;13829;48.990;8.346;2022-12-07T01:13:33;100641.97;;;5.90;100.00
26112;BME280;13829;48.990;8.346;2022-12-07T01:16:04;100638.75;;;5.99;100.00
26112;BME280;13829;48.990;8.346;2022-12-07T01:18:35;100646.22;;;5.86;100.00
26112;BME280;13829;48.990;8.346;2022-12-07T01:21:04;100644.56;;;5.90;100.00
26112;BME280;13829;48.990;8.346;2022-12-07T01:23:33;100641.72;;;5.81;100.00
26112;BME280;13829;48.990;8.346;2022-12-07T01:26:04;100653.31;;;5.91;100.00
26112;BME280;13829;48.990;8.346;2022-12-07T01:28:32;100649.31;;;6.03;100.00
26112;BME280;13829;48.990;8.346;2022-12-07T01:31:02;100640.22;;;6.21;100.00
26112;BME280;13829;48.990;8.346;2022-12-07T01:33:32;100652.13;;;6.10;100.00
26112;BME280;13829;48.990;8.346;2022-12-07T01:36:05;100649.53;;;6.11;100.00
26112;BME280;13829;48.990;8.346;2022-12-07T01:38:33;100649.03;;;6.25;100.00
26112;BME280;13829;48.990;8.346;2022-12-07T01:41:02;100647.19;;;5.90;100.00
26112;BME280;13829;48.990;8.346;2022-12-07T01:43:31;100650.13;;;5.70;100.00
26112;BME280;13829;48.990;8.346;2022-12-07T01:45:59;100651.94;;;5.73;100.00
26112;BME280;13829;48.990;8.346;2022-12-07T01:48:32;100651.13;;;5.76;100.00
26112;BME280;13829;48.990;8.346;2022-12-07T01:51:04;100655.53;;;5.77;100.00
26112;BME280;13829;48.990;8.346;2022-12-07T01:53:36;100654.97;;;5.58;100.00
26112;BME280;13829;48.990;8.346;2022-12-07T01:56:08;100648.09;;;5.60;100.00
26112;BME280;13829;48.990;8.346;2022-12-07T01:58:37;100655.56;;;5.48;100.00
26112;BME280;13829;48.990;8.346;2022-12-07T02:01:04;100651.78;;;5.38;100.00
26112;BME280;13829;48.990;8.346;2022-12-07T02:03:36;100656.72;;;5.58;100.00
26112;BME280;13829;48.990;8.346;2022-12-07T02:06:05;100662.91;;;5.61;100.00
26112;BME280;13829;48.990;8.346;2022-12-07T02:08:33;100651.16;;;5.47;100.00
26112;BME280;13829;48.990;8.346;2022-12-07T02:11:02;100644.66;;;5.61;100.00
26112;BME280;13829;48.990;8.346;2022-12-07T02:13:35;100650.31;;;5.77;100.00
26112;BME280;13829;48.990;8.346;2022-12-07T02:16:22;100646.28;;;5.58;100.00
26112;BME280;13829;48.990;8.346;2022-12-07T02:19:17;100648.06;;;5.59;100.00
26112;BME280;13829;48.990;8.346;2022-12-07T02:21:57;100645.38;;;5.57;100.00
26112;BME280;13829;48.990;8.346;2022-12-07T02:24:47;100655.81;;;5.57;100.00
26112;BME280;13829;48.990;8.346;2022-12-07T02:27:43;100644.47;;;5.55;100.00
26112;BME280;13829;48.990;8.346;2022-12-07T02:30:15;100647.47;;;5.69;100.00
26112;BME280;13829;48.990;8.346;2022-12-07T02:32:56;100647.72;;;5.48;100.00
26112;BME280;13829;48.990;8.346;2022-12-07T02:35:30;100646.56;;;5.38;100.00
26112;BME280;13829;48.990;8.346;2022-12-07T02:38:07;100640.53;;;5.41;100.00
26112;BME280;13829;48.990;8.346;2022-12-07T02:40:42;100646.22;;;5.56;100.00
26112;BME280;13829;48.990;8.346;2022-12-07T02:43:16;100651.72;;;5.36;100.00
26112;BME280;13829;48.990;8.346;2022-12-07T02:45:46;100656.44;;;5.19;100.00
26112;BME280;13829;48.990;8.346;2022-12-07T02:48:17;100652.69;;;5.38;100.00
26112;BME280;13829;48.990;8.346;2022-12-07T02:50:48;100648.81;;;5.56;100.00
26112;BME280;13829;48.990;8.346;2022-12-07T02:53:30;100633.22;;;5.58;100.00
26112;BME280;13829;48.990;8.346;2022-12-07T02:55:59;100629.28;;;5.72;100.00
26112;BME280;13829;48.990;8.346;2022-12-07T02:58:45;100627.06;;;5.55;100.00
26112;BME280;13829;48.990;8.346;2022-12-07T03:01:28;100624.81;;;5.68;100.00
26112;BME280;13829;48.990;8.346;2022-12-07T03:04:08;100624.84;;;5.69;100.00
26112;BME280;13829;48.990;8.346;2022-12-07T03:06:49;100633.28;;;5.91;100.00
26112;BME280;13829;48.990;8.346;2022-12-07T03:09:27;100626.22;;;5.87;100.00
26112;BME280;13829;48.990;8.346;2022-12-07T03:12:09;100616.66;;;5.87;100.00
26112;BME280;13829;48.990;8.346;2022-12-07T03:14:42;100622.94;;;5.94;100.00
26112;BME280;13829;48.990;8.346;2022-12-07T03:17:18;100612.44;;;5.93;100.00
26112;BME280;13829;48.990;8.346;2022-12-07T03:19:51;100606.63;;;6.01;100.00
26112;BME280;13829;48.990;8.346;2022-12-07T03:22:23;100600.72;;;6.09;100.00
26112;BME280;13829;48.990;8.346;2022-12-07T03:24:57;100596.25;;;6.03;100.00
26112;BME280;13829;48.990;8.346;2022-12-07T03:27:28;100593.28;;;5.92;100.00
26112;BME280;13829;48.990;8.346;2022-12-07T03:30:02;100596.09;;;5.66;100.00
26112;BME280;13829;48.990;8.346;2022-12-07T03:32:37;100591.53;;;5.59;100.00
26112;BME280;13829;48.990;8.346;2022-12-07T03:35:13;100594.03;;;5.56;100.00
26112;BME280;13829;48.990;8.346;2022-12-07T03:37:48;100600.38;;;5.64;100.00
26112;BME280;13829;48.990;8.346;2022-12-07T03:40:23;100605.16;;;5.20;100.00
26112;BME280;13829;48.990;8.346;2022-12-07T03:42:54;100606.56;;;5.09;100.00
26112;BME280;13829;48.990;8.346;2022-12-07T03:45:31;100616.41;;;4.90;100.00
26112;BME280;13829;48.990;8.346;2022-12-07T03:48:08;100617.72;;;4.76;100.00
26112;BME280;13829;48.990;8.346;2022-12-07T03:50:44;100618.78;;;4.82;100.00
26112;BME280;13829;48.990;8.346;2022-12-07T03:53:19;100618.09;;;4.88;100.00
26112;BME280;13829;48.990;8.346;2022-12-07T03:55:49;100616.06;;;4.78;100.00
26112;BME280;13829;48.990;8.346;2022-12-07T03:58:20;100618.09;;;4.88;100.00
26112;BME280;13829;48.990;8.346;2022-12-07T04:00:50;100614.75;;;4.92;100.00
26112;BME280;13829;48.990;8.346;2022-12-07T04:03:18;100605.81;;;5.13;100.00
26112;BME280;13829;48.990;8.346;2022-12-07T04:05:45;100599.31;;;4.98;100.00
26112;BME280;13829;48.990;8.346;2022-12-07T04:08:12;100600.97;;;4.96;100.00
26112;BME280;13829;48.990;8.346;2022-12-07T04:10:39;100599.34;;;5.00;100.00
26112;BME280;13829;48.990;8.346;2022-12-07T04:13:06;100601.16;;;5.02;100.00
26112;BME280;13829;48.990;8.346;2022-12-07T04:15:33;100600.09;;;4.96;100.00
26112;BME280;13829;48.990;8.346;2022-12-07T04:18:00;100601.47;;;4.84;100.00
26112;BME280;13829;48.990;8.346;2022-12-07T04:20:28;100606.88;;;4.90;100.00
26112;BME280;13829;48.990;8.346;2022-12-07T04:22:55;100606.94;;;4.92;100.00
26112;BME280;13829;48.990;8.346;2022-12-07T04:25:22;100601.09;;;4.99;100.00
26112;BME280;13829;48.990;8.346;2022-12-07T04:27:49;100595.94;;;5.02;100.00
26112;BME280;13829;48.990;8.346;2022-12-07T04:30:16;100596.69;;;5.27;100.00
26112;BME280;13829;48.990;8.346;2022-12-07T04:32:43;100596.69;;;5.27;100.00
26112;BME280;13829;48.990;8.346;2022-12-07T04:35:10;100588.34;;;5.10;100.00
26112;BME280;13829;48.990;8.346;2022-12-07T04:37:38;100582.47;;;5.16;100.00
26112;BME280;13829;48.990;8.346;2022-12-07T04:40:08;100593.34;;;5.31;100.00
26112;BME280;13829;48.990;8.346;2022-12-07T04:42:36;100599.66;;;5.39;100.00
26112;BME280;13829;48.990;8.346;2022-12-07T04:45:05;100598.75;;;5.37;100.00
26112;BME280;13829;48.990;8.346;2022-12-07T04:47:32;100598.34;;;5.23;100.00
26112;BME280;13829;48.990;8.346;2022-12-07T04:49:59;100597.19;;;5.15;100.00
26112;BME280;13829;48.990;8.346;2022-12-07T04:52:26;100598.00;;;5.13;100.00
26112;BME280;13829;48.990;8.346;2022-12-07T04:54:54;100597.00;;;5.09;100.00
26112;BME280;13829;48.990;8.346;2022-12-07T04:57:21;100597.28;;;5.17;100.00
26112;BME280;13829;48.990;8.346;2022-12-07T04:59:48;100594.75;;;5.20;100.00
26112;BME280;13829;48.990;8.346;2022-12-07T05:02:15;100589.56;;;5.21;100.00
26112;BME280;13829;48.990;8.346;2022-12-07T05:04:42;100594.97;;;5.28;100.00
26112;BME280;13829;48.990;8.346;2022-12-07T05:07:08;100595.28;;;5.38;100.00
26112;BME280;13829;48.990;8.346;2022-12-07T05:09:35;100599.91;;;5.47;100.00
26112;BME280;13829;48.990;8.346;2022-12-07T05:12:04;100596.97;;;5.36;100.00
26112;BME280;13829;48.990;8.346;2022-12-07T05:14:31;100599.72;;;5.41;100.00
26112;BME280;13829;48.990;8.346;2022-12-07T05:16:58;100595.00;;;5.29;100.00
26112;BME280;13829;48.990;8.346;2022-12-07T05:19:24;100598.56;;;5.31;100.00
26112;BME280;13829;48.990;8.346;2022-12-07T05:21:52;100598.91;;;5.44;100.00
26112;BME280;13829;48.990;8.346;2022-12-07T05:24:18;100593.38;;;5.33;100.00
26112;BME280;13829;48.990;8.346;2022-12-07T05:26:46;100602.78;;;5.28;100.00
26112;BME280;13829;48.990;8.346;2022-12-07T05:29:16;100592.31;;;5.26;100.00
26112;BME280;13829;48.990;8.346;2022-12-07T05:31:44;100600.78;;;5.19;100.00
26112;BME280;13829;48.990;8.346;2022-12-07T05:34:11;100597.81;;;5.06;100.00
26112;BME280;13829;48.990;8.346;2022-12-07T05:36:38;100602.75;;;4.97;100.00
26112;BME280;13829;48.990;8.346;2022-12-07T05:39:05;100597.31;;;5.18;100.00
26112;BME280;13829;48.990;8.346;2022-12-07T05:41:32;100595.97;;;5.33;100.00
26112;BME280;13829;48.990;8.346;2022-12-07T05:44:18;100593.59;;;5.12;100.00
26112;BME280;13829;48.990;8.346;2022-12-07T05:46:45;100597.81;;;5.06;100.00
26112;BME280;13829;48.990;8.346;2022-12-07T05:49:12;100598.00;;;5.13;100.00
26112;BME280;13829;48.990;8.346;2022-12-07T05:51:39;100592.09;;;5.18;100.00
26112;BME280;13829;48.990;8.346;2022-12-07T05:54:06;100594.09;;;5.27;100.00
26112;BME280;13829;48.990;8.346;2022-12-07T05:56:33;100594.56;;;5.14;100.00
26112;BME280;13829;48.990;8.346;2022-12-07T05:58:59;100590.13;;;5.11;100.00
26112;BME280;13829;48.990;8.346;2022-12-07T06:01:46;100592.59;;;5.06;100.00
26112;BME280;13829;48.990;8.346;2022-12-07T06:04:12;100590.47;;;5.22;100.00
26112;BME280;13829;48.990;8.346;2022-12-07T06:06:39;100595.00;;;5.29;100.00
26112;BME280;13829;48.990;8.346;2022-12-07T06:09:07;100588.38;;;5.41;100.00
26112;BME280;13829;48.990;8.346;2022-12-07T06:11:34;100594.28;;;5.33;100.00
26112;BME280;13829;48.990;8.346;2022-12-07T06:14:19;100590.25;;;5.45;100.00
26112;BME280;13829;48.990;8.346;2022-12-07T06:16:47;100600.13;;;5.26;100.00
26112;BME280;13829;48.990;8.346;2022-12-07T06:19:14;100603.13;;;5.38;100.00
26112;BME280;13829;48.990;8.346;2022-12-07T06:21:41;100596.38;;;5.47;100.00
26112;BME280;13829;48.990;8.346;2022-12-07T06:24:11;100596.88;;;5.33;100.00
26112;BME280;13829;48.990;8.346;2022-12-07T06:26:38;100603.53;;;5.23;100.00
26112;BME280;13829;48.990;8.346;2022-12-07T06:29:05;100604.13;;;5.44;100.00
26112;BME280;13829;48.990;8.346;2022-12-07T06:31:32;100609.69;;;5.56;100.00
26112;BME280;13829;48.990;8.346;2022-12-07T06:34:03;100602.25;;;5.39;100.00
26112;BME280;13829;48.990;8.346;2022-12-07T06:36:30;100606.63;;;5.41;100.00
26112;BME280;13829;48.990;8.346;2022-12-07T06:38:57;100603.78;;;5.31;100.00
26112;BME280;13829;48.990;8.346;2022-12-07T06:41:24;100609.00;;;5.31;100.00
26112;BME280;13829;48.990;8.346;2022-12-07T06:43:51;100617.44;;;5.24;100.00
26112;BME280;13829;48.990;8.346;2022-12-07T06:46:19;100602.00;;;5.30;100.00
26112;BME280;13829;48.990;8.346;2022-12-07T06:48:46;100608.56;;;5.46;100.00
26112;BME280;13829;48.990;8.346;2022-12-07T06:51:15;100609.78;;;5.29;100.00
26112;BME280;13829;48.990;8.346;2022-12-07T06:53:41;100606.31;;;5.28;100.00
26112;BME280;13829;48.990;8.346;2022-12-07T06:56:08;100606.84;;;5.18;100.00
26112;BME280;13829;48.990;8.346;2022-12-07T06:58:35;100602.00;;;5.30;100.00
26112;BME280;13829;48.990;8.346;2022-12-07T07:01:07;100604.22;;;5.18;100.00
26112;BME280;13829;48.990;8.346;2022-12-07T07:03:34;100610.38;;;5.20;100.00
26112;BME280;13829;48.990;8.346;2022-12-07T07:06:01;100608.53;;;5.16;100.00
26112;BME280;13829;48.990;8.346;2022-12-07T07:08:29;100601.44;;;5.12;100.00
26112;BME280;13829;48.990;8.346;2022-12-07T07:10:57;100603.13;;;5.38;100.00
26112;BME280;13829;48.990;8.346;2022-12-07T07:13:24;100595.88;;;5.28;100.00
26112;BME280;13829;48.990;8.346;2022-12-07T07:15:51;100609.78;;;5.29;100.00
26112;BME280;13829;48.990;8.346;2022-12-07T07:18:17;100601.72;;;5.21;100.00
26112;BME280;13829;48.990;8.346;2022-12-07T07:20:44;100609.66;;;5.26;100.00
26112;BME280;13829;48.990;8.346;2022-12-07T07:23:12;100610.47;;;5.23;100.00
26112;BME280;13829;48.990;8.346;2022-12-07T07:25:40;100607.03;;;5.24;100.00
26112;BME280;13829;48.990;8.346;2022-12-07T07:28:07;100612.34;;;5.27;100.00
26112;BME280;13829;48.990;8.346;2022-12-07T07:30:34;100616.34;;;5.45;100.00
26112;BME280;13829;48.990;8.346;2022-12-07T07:33:02;100611.63;;;5.33;100.00
26112;BME280;13829;48.990;8.346;2022-12-07T07:35:32;100612.34;;;5.27;100.00
26112;BME280;13829;48.990;8.346;2022-12-07T07:37:59;100614.06;;;5.27;100.00
26112;BME280;13829;48.990;8.346;2022-12-07T07:40:27;100615.41;;;5.43;100.00
26112;BME280;13829;48.990;8.346;2022-12-07T07:42:56;100615.44;;;5.44;100.00
26112;BME280;13829;48.990;8.346;2022-12-07T07:45:26;100616.56;;;5.52;100.00
26112;BME280;13829;48.990;8.346;2022-12-07T07:47:53;100613.00;;;5.50;100.00
26112;BME280;13829;48.990;8.346;2022-12-07T07:50:20;100615.25;;;5.68;100.00
26112;BME280;13829;48.990;8.346;2022-12-07T07:52:47;100619.34;;;5.59;100.00
26112;BME280;13829;48.990;8.346;2022-12-07T07:55:15;100615.59;;;5.81;100.00
26112;BME280;13829;48.990;8.346;2022-12-07T07:57:42;100621.44;;;5.42;100.00
26112;BME280;13829;48.990;8.346;2022-12-07T08:00:14;100629.00;;;5.61;100.00
26112;BME280;13829;48.990;8.346;2022-12-07T08:02:41;100622.78;;;5.58;100.00
26112;BME280;13829;48.990;8.346;2022-12-07T08:05:10;100629.25;;;5.70;100.00
26112;BME280;13829;48.990;8.346;2022-12-07T08:07:37;100627.44;;;5.68;100.00
26112;BME280;13829;48.990;8.346;2022-12-07T08:10:06;100631.63;;;5.63;100.00
26112;BME280;13829;48.990;8.346;2022-12-07T08:12:37;100628.34;;;5.70;99.89
26112;BME280;13829;48.990;8.346;2022-12-07T08:15:27;100636.34;;;5.76;98.29
26112;BME280;13829;48.990;8.346;2022-12-07T08:17:55;100639.94;;;5.80;97.48
26112;BME280;13829;48.990;8.346;2022-12-07T08:20:22;100644.19;;;5.76;96.88
26112;BME280;13829;48.990;8.346;2022-12-07T08:22:49;100647.97;;;5.57;97.72
26112;BME280;13829;48.990;8.346;2022-12-07T08:25:17;100651.16;;;5.47;97.00
26112;BME280;13829;48.990;8.346;2022-12-07T08:27:44;100650.59;;;5.57;98.57
26112;BME280;13829;48.990;8.346;2022-12-07T08:30:11;100648.88;;;5.58;98.04
26112;BME280;13829;48.990;8.346;2022-12-07T08:32:40;100652.69;;;5.69;98.56
26112;BME280;13829;48.990;8.346;2022-12-07T08:37:43;100656.66;;;5.56;96.77
26112;BME280;13829;48.990;8.346;2022-12-07T08:40:12;100655.72;;;5.54;98.00
26112;BME280;13829;48.990;8.346;2022-12-07T08:42:41;100665.53;;;5.61;97.65
26112;BME280;13829;48.990;8.346;2022-12-07T08:45:12;100660.06;;;5.53;96.87
26112;BME280;13829;48.990;8.346;2022-12-07T08:47:45;100656.66;;;5.56;97.30
26112;BME280;13829;48.990;8.346;2022-12-07T08:50:13;100657.00;;;5.68;95.94
26112;BME280;13829;48.990;8.346;2022-12-07T08:52:41;100657.38;;;5.81;95.24
26112;BME280;13829;48.990;8.346;2022-12-07T08:55:11;100670.03;;;5.67;95.97
26112;BME280;13829;48.990;8.346;2022-12-07T08:57:39;100669.88;;;5.62;96.25
26112;BME280;13829;48.990;8.346;2022-12-07T09:00:09;100669.75;;;5.58;96.47
26112;BME280;13829;48.990;8.346;2022-12-07T09:02:37;100658.56;;;5.62;95.10
26112;BME280;13829;48.990;8.346;2022-12-07T09:05:06;100660.00;;;5.82;95.33
26112;BME280;13829;48.990;8.346;2022-12-07T09:07:34;100655.59;;;5.80;95.45
26112;BME280;13829;48.990;8.346;2022-12-07T09:10:01;100652.91;;;5.77;95.33
26112;BME280;13829;48.990;8.346;2022-12-07T09:12:28;100649.06;;;5.94;93.61
26112;BME280;13829;48.990;8.346;2022-12-07T09:14:55;100657.75;;;5.95;93.74
26112;BME280;13829;48.990;8.346;2022-12-07T09:17:22;100658.59;;;5.94;92.93
26112;BME280;13829;48.990;8.346;2022-12-07T09:19:50;100659.50;;;5.94;92.72
26112;BME280;13829;48.990;8.346;2022-12-07T09:22:18;100658.84;;;6.01;91.93
26112;BME280;13829;48.990;8.346;2022-12-07T09:24:45;100649.31;;;6.03;91.77
26112;BME280;13829;48.990;8.346;2022-12-07T09:27:12;100657.16;;;6.03;92.09
26112;BME280;13829;48.990;8.346;2022-12-07T09:29:39;100652.16;;;6.11;90.80
26112;BME280;13829;48.990;8.346;2022-12-07T09:32:06;100659.00;;;6.08;91.53
26112;BME280;13829;48.990;8.346;2022-12-07T09:34:33;100656.44;;;6.09;93.04
26112;BME280;13829;48.990;8.346;2022-12-07T09:37:01;100658.00;;;6.02;92.74
26112;BME280;13829;48.990;8.346;2022-12-07T09:39:31;100667.78;;;6.10;92.15
26112;BME280;13829;48.990;8.346;2022-12-07T09:41:58;100659.09;;;6.11;91.39
26112;BME280;13829;48.990;8.346;2022-12-07T09:44:29;100662.03;;;6.23;90.34
26112;BME280;13829;48.990;8.346;2022-12-07T09:46:57;100655.72;;;6.15;90.43
26112;BME280;13829;48.990;8.346;2022-12-07T09:49:28;100661.09;;;6.19;89.30
26112;BME280;13829;48.990;8.346;2022-12-07T09:52:17;100657.88;;;6.30;88.63
26112;BME280;13829;48.990;8.346;2022-12-07T09:54:49;100658.84;;;6.33;87.98
26112;BME280;13829;48.990;8.346;2022-12-07T09:57:17;100652.69;;;6.31;88.93
26112;BME280;13829;48.990;8.346;2022-12-07T09:59:47;100652.72;;;6.33;88.80
26112;BME280;13829;48.990;8.346;2022-12-07T10:02:36;100650.25;;;6.38;88.91
26112;BME280;13829;48.990;8.346;2022-12-07T10:05:09;100641.94;;;6.54;87.53
26112;BME280;13829;48.990;8.346;2022-12-07T10:07:38;100649.91;;;6.59;88.54
26112;BME280;13829;48.990;8.346;2022-12-07T10:10:17;100633.06;;;6.47;87.63
26112;BME280;13829;48.990;8.346;2022-12-07T10:12:58;100639.00;;;6.42;86.72
26112;BME280;13829;48.990;8.346;2022-12-07T10:15:45;100633.25;;;6.55;87.94
26112;BME280;13829;48.990;8.346;2022-12-07T10:18:30;100630.69;;;6.57;87.18
26112;BME280;13829;48.990;8.346;2022-12-07T10:21:12;100626.41;;;6.60;85.99
26112;BME280;13829;48.990;8.346;2022-12-07T10:23:42;100623.50;;;6.48;84.61
26112;BME280;13829;48.990;8.346;2022-12-07T10:26:31;100625.97;;;6.43;86.19
26112;BME280;13829;48.990;8.346;2022-12-07T10:29:02;100630.25;;;6.40;86.53
26112;BME280;13829;48.990;8.346;2022-12-07T10:31:31;100634.56;;;6.38;85.90
26112;BME280;13829;48.990;8.346;2022-12-07T10:34:00;100632.41;;;6.21;87.40
26112;BME280;13829;48.990;8.346;2022-12-07T10:36:35;100626.75;;;6.39;86.53
26112;BME280;13829;48.990;8.346;2022-12-07T10:39:11;100622.84;;;6.57;84.50
26112;BME280;13829;48.990;8.346;2022-12-07T10:41:54;100621.91;;;6.55;85.68
26112;BME280;13829;48.990;8.346;2022-12-07T10:44:25;100615.81;;;6.54;86.80
26112;BME280;13829;48.990;8.346;2022-12-07T10:47:13;100618.50;;;6.57;85.61
26112;BME280;13829;48.990;8.346;2022-12-07T10:53:14;100611.88;;;6.36;85.82
26112;BME280;13829;48.990;8.346;2022-12-07T10:56:08;100611.31;;;6.48;85.95
26112;BME280;13829;48.990;8.346;2022-12-07T10:58:57;100608.44;;;6.38;86.66
26112;BME280;13829;48.990;8.346;2022-12-07T11:01:33;100604.22;;;6.43;86.91
26112;BME280;13829;48.990;8.346;2022-12-07T11:04:24;100605.59;;;6.28;87.24
26112;BME280;13829;48.990;8.346;2022-12-07T11:07:02;100602.81;;;6.22;87.62
26112;BME280;13829;48.990;8.346;2022-12-07T11:09:55;100596.66;;;6.20;87.87
26112;BME280;13829;48.990;8.346;2022-12-07T11:12:43;100594.03;;;6.18;89.52
26112;BME280;13829;48.990;8.346;2022-12-07T11:15:21;100584.81;;;6.33;87.82
26112;BME280;13829;48.990;8.346;2022-12-07T11:18:01;100583.19;;;6.38;88.54
26112;BME280;13829;48.990;8.346;2022-12-07T11:20:43;100573.44;;;6.31;88.50
26112;BME280;13829;48.990;8.346;2022-12-07T11:23:22;100583.56;;;6.53;87.51
26112;BME280;13829;48.990;8.346;2022-12-07T11:26:02;100565.22;;;6.52;87.61
26112;BME280;13829;48.990;8.346;2022-12-07T11:28:57;100570.72;;;6.63;89.13
26112;BME280;13829;48.990;8.346;2022-12-07T11:31:41;100571.06;;;6.77;88.62
26112;BME280;13829;48.990;8.346;2022-12-07T11:34:26;100567.94;;;6.93;88.67
26112;BME280;13829;48.990;8.346;2022-12-07T11:37:01;100566.13;;;6.89;85.58
26112;BME280;13829;48.990;8.346;2022-12-07T11:39:35;100568.63;;;6.86;86.42
26112;BME280;13829;48.990;8.346;2022-12-07T11:42:09;100568.72;;;6.89;86.73
26112;BME280;13829;48.990;8.346;2022-12-07T11:44:50;100566.88;;;6.85;86.68
26112;BME280;13829;48.990;8.346;2022-12-07T11:47:27;100559.03;;;6.85;86.64
26112;BME280;13829;48.990;8.346;2022-12-07T11:50:09;100555.50;;;6.83;88.20
26112;BME280;13829;48.990;8.346;2022-12-07T11:52:49;100556.50;;;6.88;87.39
26112;BME280;13829;48.990;8.346;2022-12-07T11:55:26;100550.88;;;6.71;86.55
26112;BME280;13829;48.990;8.346;2022-12-07T11:58:04;100548.72;;;6.91;87.76
26112;BME280;13829;48.990;8.346;2022-12-07T12:00:36;100549.56;;;6.90;88.72
26112;BME280;13829;48.990;8.346;2022-12-07T12:03:12;100548.78;;;6.94;87.73
26112;BME280;13829;48.990;8.346;2022-12-07T12:05:42;100545.44;;;7.01;87.08
26112;BME280;13829;48.990;8.346;2022-12-07T12:08:16;100542.81;;;7.01;88.22
26112;BME280;13829;48.990;8.346;2022-12-07T12:10:56;100541.13;;;7.02;87.92
26112;BME280;13829;48.990;8.346;2022-12-07T12:13:52;100539.38;;;7.02;86.82
26112;BME280;13829;48.990;8.346;2022-12-07T12:17:12;100540.16;;;6.98;88.26
26112;BME280;13829;48.990;8.346;2022-12-07T12:20:02;100539.22;;;6.96;88.81
26112;BME280;13829;48.990;8.346;2022-12-07T12:22:37;100531.34;;;6.93;89.47
26112;BME280;13829;48.990;8.346;2022-12-07T12:25:17;100527.19;;;7.03;88.91
26112;BME280;13829;48.990;8.346;2022-12-07T12:27:48;100524.50;;;7.00;89.61
26112;BME280;13829;48.990;8.346;2022-12-07T12:30:36;100527.38;;;7.12;90.79
26112;BME280;13829;48.990;8.346;2022-12-07T12:33:13;100529.44;;;7.27;87.58
26112;BME280;13829;48.990;8.346;2022-12-07T12:35:43;100525.84;;;7.22;86.87
26112;BME280;13829;48.990;8.346;2022-12-07T12:38:31;100514.50;;;7.23;87.24
26112;BME280;13829;48.990;8.346;2022-12-07T12:41:01;100519.69;;;7.20;86.45
26112;BME280;13829;48.990;8.346;2022-12-07T12:43:49;100519.38;;;7.05;87.91
26112;BME280;13829;48.990;8.346;2022-12-07T12:46:44;100521.25;;;7.12;86.95
26112;BME280;13829;48.990;8.346;2022-12-07T12:49:43;100513.22;;;7.02;88.74
26112;BME280;13829;48.990;8.346;2022-12-07T12:52:50;100517.34;;;6.93;88.98
26112;BME280;13829;48.990;8.346;2022-12-07T12:55:43;100517.47;;;6.97;89.12
26112;BME280;13829;48.990;8.346;2022-12-07T12:59:16;100520.03;;;6.94;89.35
26112;BME280;13829;48.990;8.346;2022-12-07T13:01:47;100515.31;;;6.78;89.33
26112;BME280;13829;48.990;8.346;2022-12-07T13:04:24;100511.00;;;6.80;89.44
26112;BME280;13829;48.990;8.346;2022-12-07T13:06:52;100508.22;;;6.74;89.93
26112;BME280;13829;48.990;8.346;2022-12-07T13:09:26;100510.16;;;6.81;90.18
26112;BME280;13829;48.990;8.346;2022-12-07T13:12:03;100507.47;;;6.78;90.59
26112;BME280;13829;48.990;8.346;2022-12-07T13:14:58;100505.69;;;6.75;90.52
26112;BME280;13829;48.990;8.346;2022-12-07T13:18:01;100502.94;;;6.69;90.74
26112;BME280;13829;48.990;8.346;2022-12-07T13:20:52;100492.50;;;6.71;90.94
26112;BME280;13829;48.990;8.346;2022-12-07T13:23:32;100491.38;;;6.59;91.20
26112;BME280;13829;48.990;8.346;2022-12-07T13:26:19;100493.19;;;6.63;91.49
26112;BME280;13829;48.990;8.346;2022-12-07T13:28:49;100490.44;;;6.57;91.59